createdAt,value
2018-06-17T00:00:45.579Z,0.00
2018-06-17T00:01:44.834Z,0.00
2018-06-17T00:02:44.919Z,0.00
2018-06-17T00:03:45.010Z,0.00
2018-06-17T00:04:45.101Z,0.00
2018-06-17T00:05:45.240Z,0.00
2018-06-17T00:06:45.336Z,0.00
2018-06-17T00:07:45.436Z,0.00
2018-06-17T00:08:45.521Z,0.00
2018-06-17T00:09:45.611Z,0.00
2018-06-17T00:10:45.697Z,0.00
2018-06-17T00:11:45.922Z,0.00
2018-06-17T00:12:45.905Z,0.00
2018-06-17T00:13:45.988Z,0.00
2018-06-17T00:14:46.087Z,0.00
2018-06-17T00:15:46.176Z,0.00
2018-06-17T00:16:46.324Z,0.00
2018-06-17T00:17:46.366Z,0.00
2018-06-17T00:18:46.461Z,0.00
2018-06-17T00:19:46.553Z,0.00
2018-06-17T00:20:46.643Z,0.00
2018-06-17T00:21:46.774Z,0.00
2018-06-17T00:22:46.883Z,0.00
2018-06-17T00:23:46.994Z,0.00
2018-06-17T00:24:47.129Z,0.00
2018-06-17T00:25:47.236Z,0.00
2018-06-17T00:26:47.324Z,0.00
2018-06-17T00:27:47.422Z,0.00
2018-06-17T00:28:47.514Z,0.00
2018-06-17T00:29:47.596Z,0.00
2018-06-17T00:30:47.700Z,0.00
2018-06-17T00:31:47.845Z,0.00
2018-06-17T00:32:47.942Z,0.00
2018-06-17T00:33:48.026Z,0.00
2018-06-17T00:34:48.133Z,0.00
2018-06-17T00:35:48.228Z,0.00
2018-06-17T00:36:48.322Z,0.00
2018-06-17T00:37:48.417Z,0.00
2018-06-17T00:38:48.510Z,0.00
2018-06-17T00:39:48.618Z,0.00
2018-06-17T00:40:48.770Z,0.00
2018-06-17T00:41:48.880Z,0.00
2018-06-17T00:42:48.975Z,0.00
2018-06-17T00:43:49.100Z,0.00
2018-06-17T00:44:49.211Z,0.00
2018-06-17T00:45:49.346Z,0.00
2018-06-17T00:46:49.474Z,0.00
2018-06-17T00:47:49.571Z,0.00
2018-06-17T00:48:49.672Z,0.00
2018-06-17T00:49:49.770Z,0.00
2018-06-17T00:50:49.854Z,0.00
2018-06-17T00:51:49.951Z,0.00
2018-06-17T00:52:50.048Z,0.00
2018-06-17T00:53:50.150Z,0.00
2018-06-17T00:54:50.274Z,0.00
2018-06-17T00:55:50.378Z,0.00
2018-06-17T00:56:50.474Z,0.00
2018-06-17T00:57:50.578Z,0.00
2018-06-17T00:58:50.679Z,0.00
2018-06-17T00:59:50.765Z,0.00
2018-06-17T01:00:50.886Z,0.00
2018-06-17T01:01:50.979Z,0.00
2018-06-17T01:02:51.074Z,0.00
2018-06-17T01:03:51.173Z,0.00
2018-06-17T01:04:51.267Z,0.00
2018-06-17T01:05:51.370Z,0.00
2018-06-17T01:06:51.452Z,0.00
2018-06-17T01:07:51.544Z,0.00
2018-06-17T01:08:51.638Z,0.00
2018-06-17T01:09:51.764Z,0.00
2018-06-17T01:10:51.866Z,0.00
2018-06-17T01:11:51.962Z,0.00
2018-06-17T01:12:52.065Z,0.00
2018-06-17T01:13:52.161Z,0.00
2018-06-17T01:14:52.264Z,0.00
2018-06-17T01:15:52.375Z,0.00
2018-06-17T01:16:52.464Z,0.00
2018-06-17T01:17:52.557Z,0.00
2018-06-17T01:18:52.664Z,0.00
2018-06-17T01:19:52.749Z,0.00
2018-06-17T01:20:52.858Z,0.00
2018-06-17T01:21:52.953Z,0.00
2018-06-17T01:22:53.050Z,0.00
2018-06-17T01:23:53.146Z,0.00
2018-06-17T01:24:53.244Z,0.00
2018-06-17T01:25:53.329Z,0.00
2018-06-17T01:26:53.422Z,0.00
2018-06-17T01:27:53.526Z,0.00
2018-06-17T01:28:53.632Z,0.00
2018-06-17T01:29:53.730Z,0.00
2018-06-17T01:30:53.827Z,0.00
2018-06-17T01:31:53.926Z,0.00
2018-06-17T01:32:54.053Z,0.00
2018-06-17T01:33:54.169Z,0.00
2018-06-17T01:34:54.284Z,0.00
2018-06-17T01:35:54.391Z,0.00
2018-06-17T01:36:54.486Z,0.00
2018-06-17T01:37:54.588Z,0.00
2018-06-17T01:38:54.686Z,0.00
2018-06-17T01:39:54.830Z,0.00
2018-06-17T01:40:54.927Z,0.00
2018-06-17T01:41:55.025Z,0.00
2018-06-17T01:42:55.121Z,0.00
2018-06-17T01:43:55.233Z,0.00
2018-06-17T01:44:55.325Z,0.00
2018-06-17T01:45:55.431Z,0.00
2018-06-17T01:46:55.523Z,0.00
2018-06-17T01:47:55.620Z,0.00
2018-06-17T01:48:55.716Z,0.00
2018-06-17T01:49:55.816Z,0.00
2018-06-17T01:50:55.912Z,0.00
2018-06-17T01:51:56.009Z,0.00
2018-06-17T01:52:56.107Z,0.00
2018-06-17T01:53:56.203Z,0.00
2018-06-17T01:54:56.301Z,0.00
2018-06-17T01:55:56.399Z,0.00
2018-06-17T01:56:56.495Z,0.00
2018-06-17T01:57:56.594Z,0.00
2018-06-17T01:58:56.692Z,0.00
2018-06-17T01:59:56.789Z,0.00
2018-06-17T02:00:56.878Z,0.00
2018-06-17T02:01:56.981Z,0.00
2018-06-17T02:02:57.078Z,0.00
2018-06-17T02:03:57.176Z,0.00
2018-06-17T02:04:57.275Z,0.00
2018-06-17T02:05:57.372Z,0.00
2018-06-17T02:06:57.470Z,0.00
2018-06-17T02:07:57.566Z,0.00
2018-06-17T02:08:57.660Z,0.00
2018-06-17T02:09:57.761Z,0.00
2018-06-17T02:10:57.861Z,0.00
2018-06-17T02:11:57.957Z,0.00
2018-06-17T02:12:58.054Z,0.00
2018-06-17T02:13:58.163Z,0.00
2018-06-17T02:14:58.261Z,0.00
2018-06-17T02:15:58.358Z,0.00
2018-06-17T02:16:58.458Z,0.00
2018-06-17T02:17:58.555Z,0.00
2018-06-17T02:18:58.652Z,0.00
2018-06-17T02:19:58.750Z,4.00
2018-06-17T02:20:58.847Z,4.00
2018-06-17T02:21:58.947Z,4.00
2018-06-17T02:22:59.048Z,4.00
2018-06-17T02:23:59.143Z,4.00
2018-06-17T02:24:59.238Z,4.00
2018-06-17T02:25:59.339Z,4.00
2018-06-17T02:26:59.435Z,4.00
2018-06-17T02:27:59.535Z,0.00
2018-06-17T02:28:59.633Z,4.00
2018-06-17T02:29:59.731Z,4.00
2018-06-17T02:30:59.831Z,4.00
2018-06-17T02:31:59.933Z,4.00
2018-06-17T02:33:00.581Z,4.00
2018-06-17T02:34:00.179Z,8.00
2018-06-17T02:35:00.298Z,4.00
2018-06-17T02:36:00.397Z,8.00
2018-06-17T02:37:00.491Z,8.00
2018-06-17T02:38:00.592Z,8.00
2018-06-17T02:39:00.688Z,8.00
2018-06-17T02:40:00.785Z,8.00
2018-06-17T02:41:00.882Z,8.00
2018-06-17T02:42:00.975Z,12.00
2018-06-17T02:43:01.075Z,12.00
2018-06-17T02:44:01.173Z,12.00
2018-06-17T02:45:01.271Z,16.00
2018-06-17T02:46:01.366Z,16.00
2018-06-17T02:47:01.465Z,16.00
2018-06-17T02:48:01.563Z,16.00
2018-06-17T02:49:01.660Z,12.00
2018-06-17T02:50:01.755Z,16.00
2018-06-17T02:51:01.853Z,16.00
2018-06-17T02:52:01.952Z,16.00
2018-06-17T02:53:02.051Z,16.00
2018-06-17T02:54:02.148Z,20.00
2018-06-17T02:55:02.250Z,24.00
2018-06-17T02:56:02.343Z,24.00
2018-06-17T02:57:02.442Z,32.00
2018-06-17T02:58:02.540Z,40.00
2018-06-17T02:59:02.641Z,52.00
2018-06-17T03:00:02.741Z,56.00
2018-06-17T03:01:02.845Z,64.00
2018-06-17T03:02:02.945Z,68.00
2018-06-17T03:03:03.047Z,72.00
2018-06-17T03:04:03.146Z,72.00
2018-06-17T03:05:03.241Z,68.00
2018-06-17T03:06:03.341Z,68.00
2018-06-17T03:07:03.438Z,64.00
2018-06-17T03:08:03.544Z,60.00
2018-06-17T03:09:03.645Z,60.00
2018-06-17T03:10:03.744Z,60.00
2018-06-17T03:11:03.840Z,56.00
2018-06-17T03:12:03.941Z,56.00
2018-06-17T03:13:04.033Z,60.00
2018-06-17T03:14:04.133Z,60.00
2018-06-17T03:15:04.233Z,60.00
2018-06-17T03:16:04.330Z,60.00
2018-06-17T03:17:04.425Z,60.00
2018-06-17T03:18:04.526Z,52.00
2018-06-17T03:19:04.623Z,52.00
2018-06-17T03:20:04.737Z,52.00
2018-06-17T03:21:04.818Z,52.00
2018-06-17T03:22:04.931Z,52.00
2018-06-17T03:23:05.030Z,48.00
2018-06-17T03:24:05.127Z,48.00
2018-06-17T03:25:05.230Z,52.00
2018-06-17T03:26:05.323Z,56.00
2018-06-17T03:27:05.422Z,60.00
2018-06-17T03:28:05.517Z,60.00
2018-06-17T03:29:05.617Z,56.00
2018-06-17T03:30:05.714Z,52.00
2018-06-17T03:31:05.811Z,56.00
2018-06-17T03:32:05.914Z,60.00
2018-06-17T03:33:06.009Z,60.00
2018-06-17T03:34:06.107Z,60.00
2018-06-17T03:35:06.205Z,64.00
2018-06-17T03:36:06.306Z,72.00
2018-06-17T03:37:06.404Z,88.00
2018-06-17T03:38:06.506Z,104.00
2018-06-17T03:39:06.603Z,120.00
2018-06-17T03:40:06.703Z,136.00
2018-06-17T03:41:06.802Z,172.00
2018-06-17T03:42:06.899Z,196.00
2018-06-17T03:43:07.009Z,228.00
2018-06-17T03:44:07.108Z,264.00
2018-06-17T03:45:07.208Z,300.00
2018-06-17T03:46:07.307Z,332.00
2018-06-17T03:47:07.404Z,344.00
2018-06-17T03:48:07.501Z,340.00
2018-06-17T03:49:07.598Z,360.00
2018-06-17T03:50:07.699Z,396.00
2018-06-17T03:51:07.794Z,416.00
2018-06-17T03:52:07.895Z,480.00
2018-06-17T03:53:07.994Z,568.00
2018-06-17T03:54:08.094Z,628.00
2018-06-17T03:55:08.192Z,664.00
2018-06-17T03:56:08.294Z,712.00
2018-06-17T03:57:08.392Z,760.00
2018-06-17T03:58:08.488Z,772.00
2018-06-17T03:59:08.583Z,736.00
2018-06-17T04:00:08.682Z,732.00
2018-06-17T04:01:08.784Z,748.00
2018-06-17T04:02:08.882Z,776.00
2018-06-17T04:03:08.981Z,796.00
2018-06-17T04:04:09.138Z,796.00
2018-06-17T04:05:09.180Z,764.00
2018-06-17T04:06:09.277Z,772.00
2018-06-17T04:07:09.374Z,812.00
2018-06-17T04:08:09.470Z,880.00
2018-06-17T04:09:09.567Z,928.00
2018-06-17T04:10:09.666Z,944.00
2018-06-17T04:11:09.767Z,916.00
2018-06-17T04:12:09.859Z,816.00
2018-06-17T04:13:09.958Z,740.00
2018-06-17T04:14:10.058Z,692.00
2018-06-17T04:15:10.154Z,692.00
2018-06-17T04:16:10.250Z,720.00
2018-06-17T04:17:10.370Z,740.00
2018-06-17T04:18:10.469Z,772.00
2018-06-17T04:19:10.568Z,840.00
2018-06-17T04:20:10.668Z,908.00
2018-06-17T04:21:10.769Z,924.00
2018-06-17T04:22:10.866Z,936.00
2018-06-17T04:23:10.964Z,932.00
2018-06-17T04:24:11.074Z,972.00
2018-06-17T04:25:11.169Z,1016.00
2018-06-17T04:26:11.269Z,1120.00
2018-06-17T04:27:11.393Z,1260.00
2018-06-17T04:28:11.458Z,1312.00
2018-06-17T04:29:11.559Z,1316.00
2018-06-17T04:30:11.660Z,1352.00
2018-06-17T04:31:11.757Z,1476.00
2018-06-17T04:32:11.856Z,1708.00
2018-06-17T04:33:11.952Z,1932.00
2018-06-17T04:34:12.051Z,2204.00
2018-06-17T04:35:12.151Z,2348.00
2018-06-17T04:36:12.249Z,2432.00
2018-06-17T04:37:12.352Z,2252.00
2018-06-17T04:38:12.445Z,1836.00
2018-06-17T04:39:12.543Z,1576.00
2018-06-17T04:40:12.642Z,1500.00
2018-06-17T04:41:12.741Z,1548.00
2018-06-17T04:42:12.840Z,1628.00
2018-06-17T04:43:12.941Z,1596.00
2018-06-17T04:44:13.040Z,1516.00
2018-06-17T04:45:13.138Z,1488.00
2018-06-17T04:46:13.233Z,1472.00
2018-06-17T04:47:13.332Z,1448.00
2018-06-17T04:48:13.431Z,1372.00
2018-06-17T04:49:13.531Z,1172.00
2018-06-17T04:50:13.632Z,1048.00
2018-06-17T04:51:13.731Z,988.00
2018-06-17T04:52:13.831Z,984.00
2018-06-17T04:53:13.932Z,1008.00
2018-06-17T04:54:14.031Z,1136.00
2018-06-17T04:55:14.130Z,1356.00
2018-06-17T04:56:14.235Z,1516.00
2018-06-17T04:57:14.334Z,1640.00
2018-06-17T04:58:14.441Z,1692.00
2018-06-17T04:59:14.541Z,1724.00
2018-06-17T05:00:14.642Z,1812.00
2018-06-17T05:01:14.731Z,1852.00
2018-06-17T05:02:14.826Z,1916.00
2018-06-17T05:03:14.916Z,1992.00
2018-06-17T05:04:15.014Z,2220.00
2018-06-17T05:05:15.146Z,2272.00
2018-06-17T05:06:15.240Z,2268.00
2018-06-17T05:07:15.326Z,2432.00
2018-06-17T05:08:15.521Z,2636.00
2018-06-17T05:09:15.533Z,2624.00
2018-06-17T05:10:15.629Z,2464.00
2018-06-17T05:11:15.728Z,2460.00
2018-06-17T05:12:15.820Z,2536.00
2018-06-17T05:13:15.931Z,2804.00
2018-06-17T05:14:16.024Z,3128.00
2018-06-17T05:15:16.128Z,3232.00
2018-06-17T05:16:16.225Z,3380.00
2018-06-17T05:17:16.321Z,3548.00
2018-06-17T05:18:16.508Z,3700.00
2018-06-17T05:19:16.503Z,3776.00
2018-06-17T05:20:16.600Z,3844.00
2018-06-17T05:21:16.696Z,4124.00
2018-06-17T05:22:16.831Z,4232.00
2018-06-17T05:23:16.934Z,4392.00
2018-06-17T05:24:17.024Z,4496.00
2018-06-17T05:25:17.124Z,4492.00
2018-06-17T05:26:17.237Z,4480.00
2018-06-17T05:27:17.345Z,4288.00
2018-06-17T05:28:17.463Z,4000.00
2018-06-17T05:29:17.548Z,3636.00
2018-06-17T05:30:17.636Z,3340.00
2018-06-17T05:31:18.622Z,3168.00
2018-06-17T05:32:17.847Z,3072.00
2018-06-17T05:33:17.931Z,2952.00
2018-06-17T05:34:18.028Z,2836.00
2018-06-17T05:35:18.129Z,2744.00
2018-06-17T05:36:18.256Z,2748.00
2018-06-17T05:37:18.352Z,2744.00
2018-06-17T05:38:18.451Z,2756.00
2018-06-17T05:39:18.551Z,2768.00
2018-06-17T05:40:18.648Z,2832.00
2018-06-17T05:41:18.742Z,2888.00
2018-06-17T05:42:18.847Z,2988.00
2018-06-17T05:43:18.939Z,3056.00
2018-06-17T05:44:19.058Z,3220.00
2018-06-17T05:45:19.171Z,3240.00
2018-06-17T05:46:19.268Z,3240.00
2018-06-17T05:47:19.386Z,3444.00
2018-06-17T05:48:19.884Z,3616.00
2018-06-17T05:49:19.636Z,3832.00
2018-06-17T05:50:19.767Z,6752.00
2018-06-17T05:51:19.903Z,4204.00
2018-06-17T05:52:20.006Z,4340.00
2018-06-17T05:53:20.092Z,4612.00
2018-06-17T05:54:20.493Z,5008.00
2018-06-17T05:55:20.360Z,5296.00
2018-06-17T05:56:20.509Z,5436.00
2018-06-17T05:57:20.517Z,5596.00
2018-06-17T05:58:20.776Z,5512.00
2018-06-17T05:59:20.813Z,5388.00
2018-06-17T06:00:20.969Z,5292.00
2018-06-17T06:01:20.964Z,5316.00
2018-06-17T06:02:21.097Z,5056.00
2018-06-17T06:03:21.209Z,4660.00
2018-06-17T06:04:21.471Z,4468.00
2018-06-17T06:05:21.588Z,4176.00
2018-06-17T06:06:21.598Z,4040.00
2018-06-17T06:07:21.702Z,3984.00
2018-06-17T06:08:21.804Z,4060.00
2018-06-17T06:09:21.923Z,4160.00
2018-06-17T06:10:22.032Z,4288.00
2018-06-17T06:11:22.117Z,4384.00
2018-06-17T06:12:22.234Z,4652.00
2018-06-17T06:13:22.339Z,4152.00
2018-06-17T06:14:22.445Z,4008.00
2018-06-17T06:15:22.545Z,4052.00
2018-06-17T06:16:22.654Z,4412.00
2018-06-17T06:17:22.758Z,4300.00
2018-06-17T06:18:22.854Z,4448.00
2018-06-17T06:19:22.949Z,4472.00
2018-06-17T06:20:23.043Z,4428.00
2018-06-17T06:21:23.143Z,4448.00
2018-06-17T06:22:23.249Z,4692.00
2018-06-17T06:23:23.349Z,5204.00
2018-06-17T06:24:23.441Z,5664.00
2018-06-17T06:25:23.524Z,6360.00
2018-06-17T06:26:23.652Z,6056.00
2018-06-17T06:27:23.773Z,6520.00
2018-06-17T06:28:23.873Z,6516.00
2018-06-17T06:29:23.983Z,6072.00
2018-06-17T06:30:24.089Z,5976.00
2018-06-17T06:31:24.189Z,6208.00
2018-06-17T06:32:24.303Z,6792.00
2018-06-17T06:33:24.426Z,6724.00
2018-06-17T06:34:24.571Z,7304.00
2018-06-17T06:35:24.681Z,7932.00
2018-06-17T06:36:24.790Z,7112.00
2018-06-17T06:37:24.916Z,7008.00
2018-06-17T06:38:25.016Z,6872.00
2018-06-17T06:39:25.160Z,6712.00
2018-06-17T06:40:25.189Z,6328.00
2018-06-17T06:41:25.293Z,6712.00
2018-06-17T06:42:25.408Z,7800.00
2018-06-17T06:43:25.511Z,8476.00
2018-06-17T06:44:25.626Z,7920.00
2018-06-17T06:45:25.725Z,8584.00
2018-06-17T06:46:25.840Z,9136.00
2018-06-17T06:47:25.941Z,9328.00
2018-06-17T06:48:26.048Z,9396.00
2018-06-17T06:49:26.148Z,8840.00
2018-06-17T06:50:26.250Z,8340.00
2018-06-17T06:51:26.349Z,8308.00
2018-06-17T06:52:26.451Z,8960.00
2018-06-17T06:53:26.556Z,9616.00
2018-06-17T06:54:26.651Z,9008.00
2018-06-17T06:55:26.752Z,9476.00
2018-06-17T06:56:26.853Z,9636.00
2018-06-17T06:57:27.001Z,9776.00
2018-06-17T06:58:27.074Z,9224.00
2018-06-17T06:59:27.178Z,8404.00
2018-06-17T07:00:27.270Z,8168.00
2018-06-17T07:01:27.376Z,8256.00
2018-06-17T07:02:27.621Z,8640.00
2018-06-17T07:03:27.539Z,8256.00
2018-06-17T07:04:27.636Z,8192.00
2018-06-17T07:05:27.734Z,8696.00
2018-06-17T07:06:27.830Z,8944.00
2018-06-17T07:07:27.931Z,8828.00
2018-06-17T07:08:28.086Z,8444.00
2018-06-17T07:09:28.184Z,8524.00
2018-06-17T07:10:28.297Z,8504.00
2018-06-17T07:11:28.405Z,8764.00
2018-06-17T07:12:28.509Z,8628.00
2018-06-17T07:13:28.611Z,8292.00
2018-06-17T07:14:28.714Z,8192.00
2018-06-17T07:15:28.819Z,8216.00
2018-06-17T07:16:28.938Z,7056.00
2018-06-17T07:17:29.041Z,6420.00
2018-06-17T07:18:29.145Z,6360.00
2018-06-17T07:19:29.257Z,6548.00
2018-06-17T07:20:29.358Z,6156.00
2018-06-17T07:21:29.489Z,5988.00
2018-06-17T07:22:29.589Z,5944.00
2018-06-17T07:23:29.692Z,6132.00
2018-06-17T07:24:29.793Z,7184.00
2018-06-17T07:25:29.898Z,7356.00
2018-06-17T07:26:30.017Z,7100.00
2018-06-17T07:27:30.131Z,6908.00
2018-06-17T07:28:30.231Z,6508.00
2018-06-17T07:29:30.334Z,6932.00
2018-06-17T07:30:30.437Z,7544.00
2018-06-17T07:31:30.538Z,7688.00
2018-06-17T07:32:30.638Z,7324.00
2018-06-17T07:33:30.741Z,7188.00
2018-06-17T07:34:30.864Z,7376.00
2018-06-17T07:35:30.961Z,7152.00
2018-06-17T07:36:31.069Z,7068.00
2018-06-17T07:37:31.170Z,7248.00
2018-06-17T07:38:31.286Z,7384.00
2018-06-17T07:39:31.389Z,7492.00
2018-06-17T07:40:31.505Z,7624.00
2018-06-17T07:41:31.606Z,7788.00
2018-06-17T07:42:31.721Z,7852.00
2018-06-17T07:43:31.830Z,7880.00
2018-06-17T07:44:31.933Z,7732.00
2018-06-17T07:45:32.035Z,5916.00
2018-06-17T07:46:32.139Z,5500.00
2018-06-17T07:47:32.242Z,5512.00
2018-06-17T07:48:32.344Z,5164.00
2018-06-17T07:49:32.450Z,4800.00
2018-06-17T07:50:32.555Z,4492.00
2018-06-17T07:51:32.655Z,4208.00
2018-06-17T07:52:32.756Z,4136.00
2018-06-17T07:53:32.858Z,3984.00
2018-06-17T07:54:32.957Z,3968.00
2018-06-17T07:55:33.089Z,3716.00
2018-06-17T07:56:33.179Z,3660.00
2018-06-17T07:57:33.309Z,3756.00
2018-06-17T07:58:33.410Z,3980.00
2018-06-17T07:59:33.514Z,4948.00
2018-06-17T08:00:33.617Z,6688.00
2018-06-17T08:01:33.714Z,5388.00
2018-06-17T08:02:33.819Z,5480.00
2018-06-17T08:03:33.922Z,5804.00
2018-06-17T08:04:34.033Z,6096.00
2018-06-17T08:05:34.129Z,5152.00
2018-06-17T08:06:34.253Z,5172.00
2018-06-17T08:07:34.367Z,7528.00
2018-06-17T08:08:34.475Z,7528.00
2018-06-17T08:09:34.581Z,7688.00
2018-06-17T08:10:34.681Z,7820.00
2018-06-17T08:11:34.782Z,8140.00
2018-06-17T08:12:34.884Z,8248.00
2018-06-17T08:13:34.989Z,8300.00
2018-06-17T08:14:35.095Z,8624.00
2018-06-17T08:15:35.194Z,8644.00
2018-06-17T08:16:35.297Z,8524.00
2018-06-17T08:17:35.397Z,8332.00
2018-06-17T08:18:35.501Z,8052.00
2018-06-17T08:19:35.605Z,7860.00
2018-06-17T08:20:35.707Z,7928.00
2018-06-17T08:21:35.810Z,8008.00
2018-06-17T08:22:35.909Z,7868.00
2018-06-17T08:23:36.008Z,8204.00
2018-06-17T08:24:36.111Z,7968.00
2018-06-17T08:25:36.214Z,8664.00
2018-06-17T08:26:36.324Z,8792.00
2018-06-17T08:27:36.422Z,9104.00
2018-06-17T08:28:36.528Z,9308.00
2018-06-17T08:29:36.625Z,9532.00
2018-06-17T08:30:36.726Z,9064.00
2018-06-17T08:31:36.828Z,7672.00
2018-06-17T08:32:36.932Z,9448.00
2018-06-17T08:33:37.038Z,7648.00
2018-06-17T08:34:37.146Z,7756.00
2018-06-17T08:35:37.246Z,9708.00
2018-06-17T08:36:37.346Z,8956.00
2018-06-17T08:37:37.451Z,7916.00
2018-06-17T08:38:37.554Z,9448.00
2018-06-17T08:39:37.657Z,6912.00
2018-06-17T08:40:37.760Z,6340.00
2018-06-17T08:41:37.863Z,5876.00
2018-06-17T08:42:37.964Z,5712.00
2018-06-17T08:43:38.070Z,5580.00
2018-06-17T08:44:38.171Z,6172.00
2018-06-17T08:45:38.276Z,5740.00
2018-06-17T08:46:38.379Z,6076.00
2018-06-17T08:47:38.484Z,6364.00
2018-06-17T08:48:38.588Z,7504.00
2018-06-17T08:49:38.691Z,7060.00
2018-06-17T08:50:38.799Z,6636.00
2018-06-17T08:51:38.903Z,6556.00
2018-06-17T08:52:39.004Z,7696.00
2018-06-17T08:53:39.103Z,7672.00
2018-06-17T08:54:39.204Z,6168.00
2018-06-17T08:55:39.308Z,6300.00
2018-06-17T08:56:39.413Z,6504.00
2018-06-17T08:57:39.543Z,6752.00
2018-06-17T08:58:39.642Z,6204.00
2018-06-17T08:59:39.746Z,6520.00
2018-06-17T09:00:39.854Z,6232.00
2018-06-17T09:01:39.953Z,6088.00
2018-06-17T09:02:40.058Z,6060.00
2018-06-17T09:03:40.159Z,6032.00
2018-06-17T09:04:40.264Z,5984.00
2018-06-17T09:05:40.370Z,5732.00
2018-06-17T09:06:40.475Z,7564.00
2018-06-17T09:07:40.568Z,5668.00
2018-06-17T09:08:40.668Z,5852.00
2018-06-17T09:09:40.769Z,6088.00
2018-06-17T09:10:40.876Z,6368.00
2018-06-17T09:11:40.978Z,7124.00
2018-06-17T09:12:41.083Z,9312.00
2018-06-17T09:13:41.187Z,6888.00
2018-06-17T09:14:41.286Z,7080.00
2018-06-17T09:15:41.393Z,8740.00
2018-06-17T09:16:41.492Z,9348.00
2018-06-17T09:17:41.595Z,9440.00
2018-06-17T09:18:41.719Z,8760.00
2018-06-17T09:19:41.812Z,7292.00
2018-06-17T09:20:41.914Z,6868.00
2018-06-17T09:21:42.019Z,6552.00
2018-06-17T09:22:42.121Z,6236.00
2018-06-17T09:23:42.217Z,6284.00
2018-06-17T09:24:42.319Z,6356.00
2018-06-17T09:25:42.427Z,6292.00
2018-06-17T09:26:42.522Z,5992.00
2018-06-17T09:27:42.624Z,5732.00
2018-06-17T09:28:42.728Z,5620.00
2018-06-17T09:29:42.829Z,5620.00
2018-06-17T09:30:42.938Z,5692.00
2018-06-17T09:31:43.074Z,5896.00
2018-06-17T09:32:43.143Z,6060.00
2018-06-17T09:33:43.241Z,6208.00
2018-06-17T09:34:43.352Z,6984.00
2018-06-17T09:35:43.455Z,6636.00
2018-06-17T09:36:43.560Z,6840.00
2018-06-17T09:37:43.666Z,6952.00
2018-06-17T09:38:43.767Z,6944.00
2018-06-17T09:39:43.874Z,6968.00
2018-06-17T09:40:43.977Z,6776.00
2018-06-17T09:41:44.079Z,6384.00
2018-06-17T09:42:44.191Z,5980.00
2018-06-17T09:43:44.291Z,6108.00
2018-06-17T09:44:44.391Z,5904.00
2018-06-17T09:45:44.501Z,6360.00
2018-06-17T09:46:44.616Z,7080.00
2018-06-17T09:47:44.703Z,7308.00
2018-06-17T09:48:44.808Z,7448.00
2018-06-17T09:49:44.921Z,7840.00
2018-06-17T09:50:45.020Z,7976.00
2018-06-17T09:51:45.115Z,8604.00
2018-06-17T09:52:45.231Z,8216.00
2018-06-17T09:53:45.327Z,7648.00
2018-06-17T09:54:45.450Z,7404.00
2018-06-17T09:55:45.559Z,8032.00
2018-06-17T09:56:45.649Z,6380.00
2018-06-17T09:57:45.750Z,8812.00
2018-06-17T09:58:45.860Z,9084.00
2018-06-17T09:59:45.965Z,8376.00
2018-06-17T10:00:46.062Z,9312.00
2018-06-17T10:01:46.215Z,9520.00
2018-06-17T10:02:46.348Z,9836.00
2018-06-17T10:03:46.340Z,9268.00
2018-06-17T10:04:46.461Z,10192.00
2018-06-17T10:05:46.567Z,10344.00
2018-06-17T10:06:46.669Z,10192.00
2018-06-17T10:07:46.786Z,10156.00
2018-06-17T10:08:46.905Z,10072.00
2018-06-17T10:09:47.002Z,9904.00
2018-06-17T10:10:47.107Z,7124.00
2018-06-17T10:11:47.207Z,6852.00
2018-06-17T10:12:47.326Z,6576.00
2018-06-17T10:13:47.474Z,6364.00
2018-06-17T10:14:47.613Z,6096.00
2018-06-17T10:15:47.716Z,5756.00
2018-06-17T10:16:47.813Z,5480.00
2018-06-17T10:17:47.941Z,5260.00
2018-06-17T10:18:48.063Z,5156.00
2018-06-17T10:19:48.156Z,5228.00
2018-06-17T10:20:48.245Z,5344.00
2018-06-17T10:21:48.358Z,5476.00
2018-06-17T10:22:48.528Z,5760.00
2018-06-17T10:23:48.535Z,6032.00
2018-06-17T10:24:48.643Z,6160.00
2018-06-17T10:25:48.734Z,6364.00
2018-06-17T10:26:48.974Z,6652.00
2018-06-17T10:27:48.989Z,6852.00
2018-06-17T10:28:49.090Z,6956.00
2018-06-17T10:29:49.226Z,7132.00
2018-06-17T10:30:49.337Z,7372.00
2018-06-17T10:31:49.433Z,7540.00
2018-06-17T10:32:49.617Z,7768.00
2018-06-17T10:33:49.731Z,7680.00
2018-06-17T10:34:49.865Z,7936.00
2018-06-17T10:35:49.934Z,7576.00
2018-06-17T10:36:50.033Z,7184.00
2018-06-17T10:37:50.160Z,6656.00
2018-06-17T10:38:50.264Z,6092.00
2018-06-17T10:39:50.372Z,5456.00
2018-06-17T10:40:50.483Z,4960.00
2018-06-17T10:41:50.614Z,4612.00
2018-06-17T10:42:50.711Z,4324.00
2018-06-17T10:43:50.828Z,4056.00
2018-06-17T10:44:51.060Z,3912.00
2018-06-17T10:45:51.035Z,3800.00
2018-06-17T10:46:51.137Z,3796.00
2018-06-17T10:47:51.242Z,3868.00
2018-06-17T10:48:51.425Z,4080.00
2018-06-17T10:49:51.476Z,4440.00
2018-06-17T10:50:51.578Z,4836.00
2018-06-17T10:51:51.677Z,5124.00
2018-06-17T10:52:51.829Z,5316.00
2018-06-17T10:53:51.921Z,5512.00
2018-06-17T10:54:52.027Z,5724.00
2018-06-17T10:55:52.230Z,6068.00
2018-06-17T10:56:52.247Z,6440.00
2018-06-17T10:57:52.349Z,6832.00
2018-06-17T10:58:52.468Z,7140.00
2018-06-17T10:59:52.569Z,7348.00
2018-06-17T11:00:52.678Z,7500.00
2018-06-17T11:01:52.783Z,7588.00
2018-06-17T11:02:52.889Z,7760.00
2018-06-17T11:03:53.006Z,7888.00
2018-06-17T11:04:53.140Z,8040.00
2018-06-17T11:05:53.250Z,8024.00
2018-06-17T11:06:53.350Z,7960.00
2018-06-17T11:07:53.438Z,8004.00
2018-06-17T11:08:53.557Z,8008.00
2018-06-17T11:09:53.659Z,8292.00
2018-06-17T11:10:53.774Z,8156.00
2018-06-17T11:11:53.865Z,8140.00
2018-06-17T11:12:53.977Z,8244.00
2018-06-17T11:13:54.102Z,8436.00
2018-06-17T11:14:54.215Z,8512.00
2018-06-17T11:15:54.325Z,8600.00
2018-06-17T11:16:54.434Z,8656.00
2018-06-17T11:17:54.537Z,8792.00
2018-06-17T11:18:54.628Z,9060.00
2018-06-17T11:19:54.729Z,9128.00
2018-06-17T11:20:54.845Z,9320.00
2018-06-17T11:21:54.951Z,9452.00
2018-06-17T11:22:55.047Z,9636.00
2018-06-17T11:23:55.144Z,9856.00
2018-06-17T11:24:55.247Z,10116.00
2018-06-17T11:25:55.352Z,9884.00
2018-06-17T11:26:55.460Z,10000.00
2018-06-17T11:27:55.560Z,10228.00
2018-06-17T11:28:55.665Z,10280.00
2018-06-17T11:29:55.766Z,12692.00
2018-06-17T11:30:55.863Z,10340.00
2018-06-17T11:31:55.965Z,11140.00
2018-06-17T11:32:56.069Z,10396.00
2018-06-17T11:33:56.173Z,10224.00
2018-06-17T11:34:56.273Z,10132.00
2018-06-17T11:35:56.379Z,9992.00
2018-06-17T11:36:56.489Z,9836.00
2018-06-17T11:37:56.598Z,9956.00
2018-06-17T11:38:56.776Z,9628.00
2018-06-17T11:39:56.842Z,9676.00
2018-06-17T11:40:56.918Z,9864.00
2018-06-17T11:41:57.033Z,10160.00
2018-06-17T11:42:57.137Z,9288.00
2018-06-17T11:43:57.244Z,9316.00
2018-06-17T11:44:57.354Z,9044.00
2018-06-17T11:45:57.468Z,8780.00
2018-06-17T11:46:57.605Z,8784.00
2018-06-17T11:47:57.716Z,11148.00
2018-06-17T11:48:57.817Z,8924.00
2018-06-17T11:49:57.926Z,9116.00
2018-06-17T11:50:58.089Z,10696.00
2018-06-17T11:51:58.133Z,9040.00
2018-06-17T11:52:58.237Z,9256.00
2018-06-17T11:53:58.337Z,9112.00
2018-06-17T11:54:58.444Z,8868.00
2018-06-17T11:55:58.557Z,8780.00
2018-06-17T11:56:58.674Z,8908.00
2018-06-17T11:57:58.780Z,8820.00
2018-06-17T11:58:58.890Z,8892.00
2018-06-17T11:59:58.991Z,8996.00
2018-06-17T12:00:59.117Z,8872.00
2018-06-17T12:01:59.234Z,8620.00
2018-06-17T12:02:59.317Z,8612.00
2018-06-17T12:03:59.421Z,8676.00
2018-06-17T12:04:59.523Z,8768.00
2018-06-17T12:05:59.626Z,8836.00
2018-06-17T12:06:59.721Z,11208.00
2018-06-17T12:07:59.847Z,8848.00
2018-06-17T12:08:59.953Z,8832.00
2018-06-17T12:10:00.073Z,9016.00
2018-06-17T12:11:00.170Z,11980.00
2018-06-17T12:12:00.277Z,9428.00
2018-06-17T12:13:00.384Z,9084.00
2018-06-17T12:14:00.492Z,8600.00
2018-06-17T12:15:00.600Z,8260.00
2018-06-17T12:16:00.701Z,7928.00
2018-06-17T12:17:00.820Z,7820.00
2018-06-17T12:18:00.906Z,7796.00
2018-06-17T12:19:01.033Z,8016.00
2018-06-17T12:20:01.146Z,8332.00
2018-06-17T12:21:01.244Z,8464.00
2018-06-17T12:22:01.373Z,8676.00
2018-06-17T12:23:01.477Z,9028.00
2018-06-17T12:24:01.579Z,9112.00
2018-06-17T12:25:01.690Z,9108.00
2018-06-17T12:26:01.787Z,8976.00